Time;durP1;ratioP1;P1;durP2;ratioP2;P2;SDS_P1;SDS_P2;PMS_P1;PMS_P2;Temp;Humidity;BMP_temperature;BMP_pressure;BME280_temperature;BME280_humidity;BME280_pressure;Samples;Min_cycle;Max_cycle;Signal;HPM_P1;HPM_P2
2022/11/24 00:01:02;;;;;;;0.70;0.50;;;7.10;99.90;;;;;;5091315;28;20079;-74
2022/11/24 00:03:28;;;;;;;0.43;0.40;;;7.20;99.90;;;;;;5093041;28;20080;-75
2022/11/24 00:05:54;;;;;;;0.40;0.38;;;6.90;99.90;;;;;;5090148;28;20499;-75
2022/11/24 00:08:19;;;;;;;0.77;0.73;;;6.80;99.90;;;;;;5078248;28;20036;-74
2022/11/24 00:10:45;;;;;;;1.60;1.50;;;6.70;99.90;;;;;;5078739;28;20055;-73
2022/11/24 00:13:11;;;;;;;0.10;0.10;;;6.80;99.90;;;;;;5072659;28;20102;-74
2022/11/24 00:15:37;;;;;;;0.20;0.20;;;6.60;99.90;;;;;;5074547;28;20057;-75
2022/11/24 00:18:02;;;;;;;1.17;0.90;;;6.60;99.90;;;;;;5074800;28;20112;-73
2022/11/24 00:20:28;;;;;;;0.63;0.63;;;6.50;99.90;;;;;;5085116;28;20112;-74
2022/11/24 00:22:54;;;;;;;3.10;1.20;;;6.50;99.90;;;;;;5092858;28;20518;-74
2022/11/24 00:25:20;;;;;;;0.50;0.50;;;6.50;99.90;;;;;;5093237;28;20047;-74
2022/11/24 00:27:46;;;;;;;2.28;1.13;;;6.80;99.90;;;;;;5059526;28;20053;-73
2022/11/24 00:30:12;;;;;;;0.30;0.30;;;6.40;99.90;;;;;;5073116;28;20049;-75
2022/11/24 00:32:38;;;;;;;0.65;0.50;;;6.30;99.90;;;;;;5072159;28;20059;-73
2022/11/24 00:35:05;;;;;;;0.43;0.43;;;6.30;99.90;;;;;;5071908;28;20044;-74
2022/11/24 00:37:30;;;;;;;2.38;0.93;;;6.30;99.90;;;;;;5074386;28;20044;-72
2022/11/24 00:39:56;;;;;;;1.10;0.98;;;6.30;99.90;;;;;;5078770;28;20074;-72
2022/11/24 00:42:22;;;;;;;0.50;0.50;;;6.20;99.90;;;;;;5093436;28;20052;-71
2022/11/24 00:44:48;;;;;;;1.38;1.25;;;6.20;99.90;;;;;;5082261;28;20501;-73
2022/11/24 00:47:13;;;;;;;0.38;0.38;;;6.20;99.90;;;;;;5073897;28;20455;-71
2022/11/24 00:49:39;;;;;;;0.50;0.50;;;6.10;99.90;;;;;;5072551;28;20119;-71
2022/11/24 00:52:05;;;;;;;0.15;0.15;;;6.10;99.90;;;;;;5072377;28;20418;-73
2022/11/24 00:54:30;;;;;;;0.40;0.40;;;6.00;99.90;;;;;;5072163;28;20503;-72
2022/11/24 00:56:56;;;;;;;0.45;0.25;;;6.00;99.90;;;;;;5074825;28;20052;-70
2022/11/24 00:59:21;;;;;;;2.40;1.23;;;6.10;99.90;;;;;;5090479;28;20051;-72
2022/11/24 01:01:47;;;;;;;0.50;0.47;;;6.10;99.90;;;;;;5093535;28;20044;-71
2022/11/24 01:04:14;;;;;;;0.95;0.55;;;6.10;99.90;;;;;;5091178;28;20047;-74
2022/11/24 01:06:39;;;;;;;1.00;0.93;;;6.10;99.90;;;;;;5091564;28;20052;-73
2022/11/24 01:09:05;;;;;;;0.25;0.25;;;6.10;99.90;;;;;;5072752;28;20498;-75
2022/11/24 01:12:00;;;;;;;2.40;1.73;;;6.10;99.90;;;;;;5071756;28;20051;-72
2022/11/24 01:14:20;;;;;;;0.20;0.20;;;6.10;99.90;;;;;;5072742;28;20113;-73
2022/11/24 01:16:46;;;;;;;0.85;0.82;;;6.00;99.90;;;;;;5086586;28;20048;-73
2022/11/24 01:19:12;;;;;;;0.03;0.03;;;5.90;99.90;;;;;;5078755;28;20102;-74
2022/11/24 01:21:37;;;;;;;1.08;0.88;;;5.90;99.90;;;;;;5071786;28;20043;-73
2022/11/24 01:24:03;;;;;;;0.17;0.15;;;5.90;99.90;;;;;;5070495;28;20051;-74
2022/11/24 01:26:29;;;;;;;1.30;1.08;;;5.80;99.90;;;;;;5071268;28;20068;-73
2022/11/24 01:28:56;;;;;;;0.10;0.10;;;5.80;99.90;;;;;;5091481;28;20044;-73
2022/11/24 01:31:22;;;;;;;0.50;0.50;;;5.80;99.90;;;;;;5076762;28;20060;-74
2022/11/24 01:33:49;;;;;;;0.00;0.00;;;5.80;99.90;;;;;;5072292;28;20433;-73
2022/11/24 01:36:14;;;;;;;0.08;0.08;;;5.90;99.90;;;;;;5072487;28;20036;-73
2022/11/24 01:38:40;;;;;;;0.40;0.40;;;5.80;99.90;;;;;;5087958;28;20040;-74
2022/11/24 01:41:10;;;;;;;3.92;1.10;;;5.90;99.90;;;;;;5072155;28;20498;-73
2022/11/24 01:43:37;;;;;;;0.38;0.38;;;6.00;99.90;;;;;;5087408;28;20128;-73
2022/11/24 01:46:24;;;;;;;1.10;0.52;;;6.00;99.90;;;;;;5091502;28;20040;-73
2022/11/24 01:49:16;;;;;;;3.63;0.70;;;5.90;99.90;;;;;;5073149;28;20128;-73
2022/11/24 01:51:54;;;;;;;0.00;0.00;;;6.00;99.90;;;;;;5083495;28;20517;-73
2022/11/24 01:54:27;;;;;;;0.10;0.10;;;6.10;99.90;;;;;;5089246;28;20071;-73
2022/11/24 01:56:59;;;;;;;0.38;0.38;;;6.10;99.90;;;;;;5090895;28;20087;-74
2022/11/24 01:59:25;;;;;;;0.15;0.10;;;6.20;99.90;;;;;;5089339;28;20070;-73
2022/11/24 02:01:52;;;;;;;2.22;0.85;;;6.30;99.90;;;;;;5075506;28;20048;-75
2022/11/24 02:04:23;;;;;;;6.55;2.20;;;6.40;99.90;;;;;;5078951;28;20056;-74
2022/11/24 02:06:51;;;;;;;0.47;0.47;;;6.50;99.90;;;;;;5075030;28;20047;-73
2022/11/24 02:09:23;;;;;;;7.50;1.95;;;6.50;99.90;;;;;;5075654;28;20127;-73
2022/11/24 02:11:50;;;;;;;0.00;0.00;;;6.60;99.90;;;;;;5096044;28;20048;-73
2022/11/24 02:14:18;;;;;;;3.10;0.75;;;6.70;99.90;;;;;;5090883;28;20076;-73
2022/11/24 02:16:48;;;;;;;0.60;0.60;;;6.60;99.90;;;;;;5076019;28;20071;-74
2022/11/24 02:19:40;;;;;;;0.00;0.00;;;6.50;99.90;;;;;;5074783;28;20178;-74
2022/11/24 02:22:35;;;;;;;0.20;0.20;;;6.40;99.90;;;;;;5087825;28;20508;-73
2022/11/24 02:25:07;;;;;;;0.22;0.22;;;6.40;99.90;;;;;;5083604;28;20048;-73
2022/11/24 02:27:33;;;;;;;24.83;1.77;;;6.40;99.90;;;;;;5079453;28;20480;-73
2022/11/24 02:29:58;;;;;;;1.30;1.20;;;6.40;99.90;;;;;;5092795;28;20075;-73
2022/11/24 02:32:24;;;;;;;0.00;0.00;;;6.30;99.90;;;;;;5074695;28;20048;-74
2022/11/24 02:35:00;;;;;;;1.27;0.88;;;6.40;99.90;;;;;;5084071;28;20044;-73
2022/11/24 02:37:25;;;;;;;0.33;0.33;;;6.20;99.90;;;;;;5093784;28;20047;-72
2022/11/24 02:39:51;;;;;;;0.00;0.00;;;6.10;99.90;;;;;;5093919;28;20047;-74
2022/11/24 02:42:17;;;;;;;1.55;0.68;;;6.00;99.90;;;;;;5073896;28;20044;-74
2022/11/24 02:44:48;;;;;;;0.50;0.50;;;6.10;99.90;;;;;;5082980;28;20040;-74
2022/11/24 02:47:13;;;;;;;0.00;0.00;;;6.00;99.90;;;;;;5095829;28;20167;-73
2022/11/24 02:49:39;;;;;;;3.83;1.98;;;5.90;99.90;;;;;;5095600;28;20076;-73
2022/11/24 02:52:06;;;;;;;0.00;0.00;;;5.90;99.90;;;;;;5076264;28;20044;-74
2022/11/24 02:54:32;;;;;;;0.00;0.00;;;5.90;99.90;;;;;;5081692;28;20573;-72
2022/11/24 02:56:58;;;;;;;0.63;0.63;;;5.90;99.90;;;;;;5095598;28;20087;-72
2022/11/24 02:59:24;;;;;;;0.00;0.00;;;5.90;99.90;;;;;;5095456;28;20524;-74
2022/11/24 03:01:50;;;;;;;0.65;0.50;;;5.90;99.90;;;;;;5080269;28;20052;-72
2022/11/24 03:04:15;;;;;;;0.25;0.25;;;6.00;99.90;;;;;;5083140;28;20044;-73
2022/11/24 03:06:42;;;;;;;0.00;0.00;;;6.00;99.90;;;;;;5094699;28;20070;-74
2022/11/24 03:09:09;;;;;;;0.85;0.85;;;5.90;99.90;;;;;;5095934;28;20051;-75
2022/11/24 03:11:35;;;;;;;0.00;0.00;;;6.00;99.90;;;;;;5090392;28;20054;-74
2022/11/24 03:14:01;;;;;;;4.38;1.27;;;6.30;99.90;;;;;;5074847;28;20070;-73
2022/11/24 03:16:27;;;;;;;8.32;0.75;;;6.00;99.90;;;;;;5074320;28;20590;-75
2022/11/24 03:18:53;;;;;;;1.38;0.40;;;6.20;99.90;;;;;;5074152;28;20044;-72
2022/11/24 03:21:19;;;;;;;8.95;1.40;;;6.00;99.90;;;;;;5080568;28;20048;-74
2022/11/24 03:23:45;;;;;;;0.45;0.45;;;5.90;99.90;;;;;;5052737;28;20475;-73
2022/11/24 03:26:14;;;;;;;0.00;0.00;;;6.00;99.90;;;;;;5035269;28;20068;-72
2022/11/24 03:28:40;;;;;;;0.47;0.35;;;5.90;99.90;;;;;;5053490;28;20040;-73
2022/11/24 03:31:07;;;;;;;12.95;0.57;;;6.00;99.90;;;;;;5065085;28;20040;-74
2022/11/24 03:33:34;;;;;;;1.75;1.35;;;6.10;99.90;;;;;;5093494;28;20546;-74
2022/11/24 03:36:00;;;;;;;3.20;1.35;;;6.10;99.90;;;;;;5093467;28;20582;-73
2022/11/24 03:38:26;;;;;;;8.40;1.30;;;6.20;99.90;;;;;;5093561;28;20105;-73
2022/11/24 03:40:51;;;;;;;1.90;1.38;;;6.20;99.90;;;;;;5093633;28;20095;-73
2022/11/24 03:43:17;;;;;;;1.95;0.57;;;6.30;99.90;;;;;;5092633;28;20044;-73
2022/11/24 03:45:47;;;;;;;0.00;0.00;;;6.30;99.90;;;;;;5094266;28;20070;-72
2022/11/24 03:48:14;;;;;;;0.47;0.47;;;6.30;99.90;;;;;;5093493;28;20040;-72
2022/11/24 03:50:40;;;;;;;2.10;0.88;;;6.40;99.90;;;;;;5093648;28;20044;-73
2022/11/24 03:53:05;;;;;;;0.30;0.30;;;6.30;99.90;;;;;;5084233;28;20490;-74
2022/11/24 03:55:31;;;;;;;0.30;0.30;;;6.30;99.90;;;;;;5093941;28;20075;-72
2022/11/24 03:57:57;;;;;;;1.55;0.75;;;6.20;99.90;;;;;;5094067;28;20060;-73
2022/11/24 04:00:22;;;;;;;0.22;0.22;;;6.20;99.90;;;;;;5094300;28;20547;-74
2022/11/24 04:02:48;;;;;;;0.95;0.95;;;6.20;99.90;;;;;;5085494;28;20037;-74
2022/11/24 04:05:14;;;;;;;0.15;0.15;;;6.20;99.90;;;;;;5075959;28;20331;-73
2022/11/24 04:07:40;;;;;;;0.17;0.17;;;6.10;99.90;;;;;;5074741;28;20029;-73
2022/11/24 04:10:06;;;;;;;0.00;0.00;;;6.00;99.90;;;;;;5073744;28;20059;-73
2022/11/24 04:12:44;;;;;;;0.77;0.77;;;6.00;99.90;;;;;;5081147;28;20063;-75
2022/11/24 04:15:12;;;;;;;0.00;0.00;;;6.00;99.90;;;;;;5073955;28;20041;-73
2022/11/24 04:17:38;;;;;;;0.00;0.00;;;5.90;99.90;;;;;;5078646;28;20071;-74
2022/11/24 04:20:04;;;;;;;0.00;0.00;;;5.80;99.90;;;;;;5093636;28;20040;-74
2022/11/24 04:22:29;;;;;;;0.00;0.00;;;5.80;99.90;;;;;;5090431;28;20051;-72
2022/11/24 04:24:55;;;;;;;0.08;0.08;;;5.80;99.90;;;;;;5093973;28;20044;-75
2022/11/24 04:27:21;;;;;;;0.57;0.57;;;5.80;99.90;;;;;;5091974;28;20044;-73
2022/11/24 04:29:46;;;;;;;1.20;0.70;;;5.80;99.90;;;;;;5093434;28;20037;-74
2022/11/24 04:32:12;;;;;;;0.13;0.13;;;5.80;99.90;;;;;;5083907;28;20064;-73
2022/11/24 04:34:38;;;;;;;0.00;0.00;;;5.80;99.90;;;;;;5072904;28;20086;-73
2022/11/24 04:37:04;;;;;;;0.10;0.10;;;5.80;99.90;;;;;;5073235;28;20055;-72
2022/11/24 04:39:29;;;;;;;0.00;0.00;;;5.80;99.90;;;;;;5073017;28;20041;-73
2022/11/24 04:41:55;;;;;;;0.85;0.85;;;5.70;99.90;;;;;;5077730;28;20040;-74
2022/11/24 04:44:21;;;;;;;8.05;0.47;;;5.70;99.90;;;;;;5093014;28;20401;-74
2022/11/24 04:46:46;;;;;;;0.00;0.00;;;5.70;99.90;;;;;;5091482;28;20048;-75
2022/11/24 04:49:12;;;;;;;0.20;0.20;;;5.70;99.90;;;;;;5091925;28;20075;-74
2022/11/24 04:51:39;;;;;;;0.08;0.08;;;5.70;99.90;;;;;;5077262;28;20131;-74
2022/11/24 04:54:06;;;;;;;0.75;0.75;;;5.60;99.90;;;;;;5089810;28;20051;-73
2022/11/24 04:56:32;;;;;;;0.20;0.20;;;5.60;99.90;;;;;;5093061;28;20048;-74
2022/11/24 04:58:59;;;;;;;0.20;0.20;;;5.70;99.90;;;;;;5091736;28;20105;-72
2022/11/24 05:01:25;;;;;;;0.28;0.28;;;5.60;99.90;;;;;;5091478;28;20044;-73
2022/11/24 05:03:54;;;;;;;0.13;0.13;;;5.50;99.90;;;;;;5091836;28;20036;-74
2022/11/24 05:06:20;;;;;;;0.10;0.10;;;5.50;99.90;;;;;;5092352;28;20063;-73
2022/11/24 05:08:47;;;;;;;0.00;0.00;;;5.50;99.90;;;;;;5091949;28;20303;-72
2022/11/24 05:11:13;;;;;;;0.00;0.00;;;5.50;99.90;;;;;;5092996;28;20557;-74
2022/11/24 05:13:39;;;;;;;0.65;0.65;;;5.50;99.90;;;;;;5090545;28;20456;-72
2022/11/24 05:16:05;;;;;;;0.00;0.00;;;5.60;99.90;;;;;;5092085;28;20048;-74
2022/11/24 05:18:31;;;;;;;0.00;0.00;;;5.50;99.90;;;;;;5091441;28;20165;-74
2022/11/24 05:20:57;;;;;;;0.00;0.00;;;6.40;99.90;;;;;;5093080;28;20069;-73
2022/11/24 05:23:24;;;;;;;0.00;0.00;;;5.50;99.90;;;;;;5075279;28;20384;-74
2022/11/24 05:25:50;;;;;;;0.00;0.00;;;5.40;99.90;;;;;;5071855;28;20123;-74
2022/11/24 05:28:16;;;;;;;0.15;0.13;;;5.40;99.90;;;;;;5090943;28;20494;-73
2022/11/24 05:30:43;;;;;;;0.57;0.28;;;5.40;99.90;;;;;;5091069;28;20051;-75
2022/11/24 05:33:17;;;;;;;0.00;0.00;;;5.40;99.90;;;;;;5091468;28;20048;-74
2022/11/24 05:35:45;;;;;;;0.85;0.85;;;5.30;99.90;;;;;;5082095;28;20044;-72
2022/11/24 05:38:10;;;;;;;0.00;0.00;;;5.30;99.90;;;;;;5070780;28;20394;-75
2022/11/24 05:40:37;;;;;;;0.60;0.60;;;5.30;99.90;;;;;;5070655;28;20041;-72
2022/11/24 05:43:03;;;;;;;28.38;1.45;;;5.20;99.90;;;;;;5083758;28;20051;-74
2022/11/24 05:45:29;;;;;;;1.60;0.30;;;5.20;99.90;;;;;;5091331;28;20048;-73
2022/11/24 05:48:04;;;;;;;0.00;0.00;;;5.20;99.90;;;;;;5091178;28;20046;-72
2022/11/24 05:50:29;;;;;;;0.60;0.45;;;5.20;99.90;;;;;;5091601;28;20058;-74
2022/11/24 05:52:55;;;;;;;1.92;0.28;;;5.30;99.90;;;;;;5085894;28;20123;-73
2022/11/24 05:55:21;;;;;;;0.00;0.00;;;5.30;99.90;;;;;;5092120;28;20051;-72
2022/11/24 05:57:47;;;;;;;5.43;1.85;;;5.30;99.90;;;;;;5091059;28;20060;-72
2022/11/24 06:00:13;;;;;;;0.00;0.00;;;5.30;99.90;;;;;;5088868;28;20052;-74
2022/11/24 06:02:39;;;;;;;1.55;1.13;;;5.30;99.90;;;;;;5079813;28;20060;-74
2022/11/24 06:05:05;;;;;;;0.52;0.52;;;5.30;99.90;;;;;;5068920;28;20040;-74
2022/11/24 06:07:31;;;;;;;1.95;1.08;;;5.30;99.90;;;;;;5069823;28;20040;-74
2022/11/24 06:09:59;;;;;;;0.08;0.08;;;5.30;99.90;;;;;;5056846;28;20052;-72
2022/11/24 06:12:25;;;;;;;3.20;1.40;;;5.30;99.90;;;;;;5074435;28;20036;-73
2022/11/24 06:14:51;;;;;;;0.10;0.10;;;5.30;99.90;;;;;;5088798;28;20059;-73
2022/11/24 06:17:16;;;;;;;0.00;0.00;;;5.30;99.90;;;;;;5089922;28;20497;-73
2022/11/24 06:19:45;;;;;;;0.05;0.05;;;5.30;99.90;;;;;;5074250;28;20082;-74
2022/11/24 06:22:10;;;;;;;0.30;0.30;;;5.30;99.90;;;;;;5070139;28;20052;-74
2022/11/24 06:24:37;;;;;;;0.00;0.00;;;5.30;99.90;;;;;;5074022;28;20058;-75
2022/11/24 06:27:02;;;;;;;0.10;0.10;;;5.30;99.90;;;;;;5069256;28;20045;-75
2022/11/24 06:29:28;;;;;;;0.10;0.10;;;5.30;99.90;;;;;;5070654;28;20051;-74
2022/11/24 06:31:53;;;;;;;0.00;0.00;;;5.30;99.90;;;;;;5070919;28;20049;-73
2022/11/24 06:34:19;;;;;;;0.00;0.00;;;5.20;99.90;;;;;;5070537;28;20128;-73
2022/11/24 06:36:45;;;;;;;0.03;0.03;;;5.20;99.90;;;;;;5071141;28;20049;-75
2022/11/24 06:39:11;;;;;;;0.75;0.52;;;5.30;99.90;;;;;;5069578;28;20059;-74
2022/11/24 06:41:37;;;;;;;0.05;0.05;;;5.30;99.90;;;;;;5069839;28;20739;-74
2022/11/24 06:44:03;;;;;;;0.47;0.47;;;5.30;99.90;;;;;;5068348;28;20044;-73
2022/11/24 06:46:29;;;;;;;0.00;0.00;;;5.20;99.90;;;;;;5069201;28;20048;-73
2022/11/24 06:48:55;;;;;;;0.00;0.00;;;5.20;99.90;;;;;;5072406;28;20045;-74
2022/11/24 06:51:21;;;;;;;0.32;0.32;;;5.10;99.90;;;;;;5072339;28;20050;-73
2022/11/24 06:53:46;;;;;;;0.20;0.20;;;5.10;99.90;;;;;;5071049;28;20494;-74
2022/11/24 06:56:17;;;;;;;0.38;0.38;;;5.30;99.90;;;;;;5071359;28;20044;-73
2022/11/24 06:58:52;;;;;;;0.00;0.00;;;5.30;99.90;;;;;;5070095;28;20071;-72
2022/11/24 07:01:26;;;;;;;0.40;0.40;;;5.30;99.90;;;;;;5072365;28;20052;-74
2022/11/24 07:03:53;;;;;;;0.00;0.00;;;5.30;99.90;;;;;;5072995;28;20107;-73
2022/11/24 07:06:19;;;;;;;0.00;0.00;;;5.30;99.90;;;;;;5072152;28;20047;-73
2022/11/24 07:08:46;;;;;;;4.40;1.52;;;5.30;99.90;;;;;;5073352;28;20040;-73
2022/11/24 07:11:16;;;;;;;0.00;0.00;;;5.30;99.90;;;;;;5072232;28;20049;-74
2022/11/24 07:13:42;;;;;;;0.00;0.00;;;5.30;99.90;;;;;;5054190;28;20481;-74
2022/11/24 07:16:19;;;;;;;0.00;0.00;;;5.30;99.90;;;;;;5072485;28;20514;-73
2022/11/24 07:18:46;;;;;;;0.10;0.10;;;5.30;99.90;;;;;;5071851;28;20048;-72
2022/11/24 07:21:12;;;;;;;1.02;0.70;;;5.40;99.90;;;;;;5072257;28;20064;-72
2022/11/24 07:23:38;;;;;;;0.10;0.10;;;5.40;99.90;;;;;;5071450;28;20056;-73
2022/11/24 07:26:05;;;;;;;0.63;0.63;;;5.50;99.90;;;;;;5072160;28;20048;-73
2022/11/24 07:28:31;;;;;;;0.00;0.00;;;5.50;99.90;;;;;;5071901;28;20036;-73
2022/11/24 07:30:57;;;;;;;0.75;0.75;;;5.60;99.90;;;;;;5072126;28;20049;-73
2022/11/24 07:33:24;;;;;;;2.08;0.90;;;5.60;99.90;;;;;;5072022;28;20409;-73
2022/11/24 07:35:53;;;;;;;0.05;0.05;;;5.50;99.90;;;;;;5071919;28;20063;-74
2022/11/24 07:38:19;;;;;;;0.03;0.03;;;5.50;99.90;;;;;;5072184;28;20150;-74
2022/11/24 07:40:45;;;;;;;1.35;0.82;;;5.50;99.90;;;;;;5071931;28;20040;-73
2022/11/24 07:43:11;;;;;;;2.17;2.08;;;5.40;99.90;;;;;;5072264;28;20037;-72
2022/11/24 07:45:36;;;;;;;0.75;0.63;;;5.50;99.90;;;;;;5072108;28;20517;-74
2022/11/24 07:48:02;;;;;;;0.65;0.47;;;5.50;99.90;;;;;;5070251;28;20041;-72
2022/11/24 07:50:28;;;;;;;5.85;1.55;;;5.40;99.90;;;;;;5071040;28;20104;-72
2022/11/24 07:52:53;;;;;;;2.92;1.23;;;5.40;99.90;;;;;;5071530;28;20043;-74
2022/11/24 07:55:19;;;;;;;0.00;0.00;;;5.40;99.90;;;;;;5071951;28;20044;-74
2022/11/24 07:57:45;;;;;;;2.25;1.38;;;5.40;99.90;;;;;;5071452;28;20044;-74
2022/11/24 08:00:12;;;;;;;0.52;0.50;;;5.40;99.90;;;;;;5071823;28;20072;-74
2022/11/24 08:02:38;;;;;;;0.20;0.20;;;5.50;99.90;;;;;;5071288;28;20392;-74
2022/11/24 08:05:04;;;;;;;0.65;0.40;;;5.60;99.90;;;;;;5070588;28;20102;-74
2022/11/24 08:07:31;;;;;;;0.20;0.20;;;5.40;99.90;;;;;;5070933;28;20048;-74
2022/11/24 08:09:57;;;;;;;0.00;0.00;;;5.40;99.90;;;;;;5070585;28;20528;-73
2022/11/24 08:12:22;;;;;;;3.20;1.20;;;5.40;99.90;;;;;;5071417;28;20127;-74
2022/11/24 08:14:49;;;;;;;0.00;0.00;;;5.50;99.90;;;;;;5070425;28;20040;-73
2022/11/24 08:17:16;;;;;;;0.00;0.00;;;5.50;99.90;;;;;;5069839;28;20059;-74
2022/11/24 08:19:42;;;;;;;2.35;1.33;;;5.60;99.90;;;;;;5050810;28;20052;-73
2022/11/24 08:22:08;;;;;;;0.65;0.65;;;5.60;99.90;;;;;;5069091;28;20048;-72
2022/11/24 08:24:34;;;;;;;0.32;0.25;;;5.70;99.90;;;;;;5068052;28;20044;-75
2022/11/24 08:26:59;;;;;;;0.00;0.00;;;5.80;99.90;;;;;;5068317;28;20045;-74
2022/11/24 08:29:29;;;;;;;1.70;0.40;;;5.90;99.90;;;;;;5069488;28;20059;-73
2022/11/24 08:31:58;;;;;;;0.00;0.00;;;6.00;99.90;;;;;;5066564;28;20395;-74
2022/11/24 08:34:25;;;;;;;0.00;0.00;;;6.10;99.90;;;;;;5069048;28;20086;-74
2022/11/24 08:36:51;;;;;;;3.70;1.98;;;6.00;99.90;;;;;;5068705;28;20056;-75
2022/11/24 08:39:17;;;;;;;0.38;0.28;;;6.00;99.90;;;;;;5069058;28;20044;-73
2022/11/24 08:41:43;;;;;;;3.55;2.38;;;6.10;99.90;;;;;;5068075;28;20052;-74
2022/11/24 08:44:09;;;;;;;1.33;0.57;;;6.10;99.90;;;;;;5067565;28;20043;-73
2022/11/24 08:46:35;;;;;;;0.70;0.52;;;6.20;99.90;;;;;;5067854;28;20110;-73
2022/11/24 08:49:02;;;;;;;0.17;0.17;;;6.20;99.90;;;;;;5068579;28;20051;-73
2022/11/24 08:51:28;;;;;;;0.47;0.30;;;6.20;99.90;;;;;;5067389;28;20062;-72
2022/11/24 08:53:55;;;;;;;9.43;1.45;;;6.40;99.90;;;;;;5067942;28;20044;-74
2022/11/24 08:56:21;;;;;;;0.15;0.15;;;6.40;99.90;;;;;;5066718;28;20040;-73
2022/11/24 08:58:47;;;;;;;5.82;0.88;;;6.50;99.90;;;;;;5065235;28;20049;-74
2022/11/24 09:01:15;;;;;;;7.13;1.35;;;6.60;99.90;;;;;;5068656;28;20049;-74
2022/11/24 09:03:42;;;;;;;0.13;0.13;;;6.70;99.90;;;;;;5068958;28;20048;-73
2022/11/24 09:06:08;;;;;;;0.08;0.08;;;6.70;99.90;;;;;;5049378;28;20041;-74
2022/11/24 09:08:34;;;;;;;0.47;0.47;;;6.80;99.90;;;;;;5067110;28;20078;-74
2022/11/24 09:11:01;;;;;;;0.65;0.52;;;6.80;99.90;;;;;;5066890;28;20048;-73
2022/11/24 09:13:27;;;;;;;0.22;0.15;;;6.90;99.90;;;;;;5069061;28;20098;-73
2022/11/24 09:15:53;;;;;;;0.38;0.38;;;6.90;99.90;;;;;;5068846;28;20067;-72
2022/11/24 09:18:18;;;;;;;1.67;1.58;;;7.00;99.90;;;;;;5067592;28;20481;-73
2022/11/24 09:20:44;;;;;;;2.05;0.57;;;7.00;99.90;;;;;;5069071;28;20040;-75
2022/11/24 09:23:10;;;;;;;0.05;0.05;;;7.10;99.90;;;;;;5069900;28;20052;-74
2022/11/24 09:25:36;;;;;;;0.00;0.00;;;7.30;99.90;;;;;;5068592;28;20048;-75
2022/11/24 09:28:02;;;;;;;0.38;0.38;;;7.40;99.90;;;;;;5068667;28;20522;-72
2022/11/24 09:30:28;;;;;;;0.32;0.32;;;7.50;99.90;;;;;;5068778;28;20044;-73
2022/11/24 09:32:57;;;;;;;0.22;0.22;;;7.50;99.90;;;;;;5066164;28;20071;-72
2022/11/24 09:35:23;;;;;;;0.00;0.00;;;7.60;99.90;;;;;;5063919;28;20036;-74
2022/11/24 09:37:50;;;;;;;0.00;0.00;;;7.50;99.90;;;;;;5068010;28;20053;-73
2022/11/24 09:40:16;;;;;;;10.25;3.25;;;7.60;99.90;;;;;;5068074;28;20048;-73
2022/11/24 09:43:20;;;;;;;1.20;1.00;;;7.60;99.90;;;;;;5066835;28;20098;-74
2022/11/24 09:46:15;;;;;;;0.00;0.00;;;8.70;99.90;;;;;;5067984;28;20074;-73
2022/11/24 09:48:46;;;;;;;0.65;0.35;;;7.70;99.90;;;;;;5012859;28;20046;-74
2022/11/24 09:51:14;;;;;;;0.73;0.47;;;7.70;99.90;;;;;;5067789;28;20051;-74
2022/11/24 09:53:43;;;;;;;0.43;0.43;;;7.70;99.90;;;;;;5067205;28;20422;-73
2022/11/24 09:56:22;;;;;;;0.00;0.00;;;7.70;99.90;;;;;;5068212;28;20734;-73
2022/11/24 09:58:49;;;;;;;0.28;0.22;;;7.80;99.90;;;;;;5067849;28;20067;-73
2022/11/24 10:01:23;;;;;;;0.10;0.10;;;7.80;99.90;;;;;;5067519;28;20056;-73
2022/11/24 10:03:53;;;;;;;1.48;0.57;;;7.80;99.90;;;;;;5067475;28;20044;-73
2022/11/24 10:06:33;;;;;;;0.00;0.00;;;7.90;99.90;;;;;;5067337;28;20040;-73
2022/11/24 10:09:20;;;;;;;0.73;0.63;;;7.90;99.90;;;;;;5068644;28;20055;-74
2022/11/24 10:11:57;;;;;;;0.00;0.00;;;8.00;99.90;;;;;;5068581;28;20566;-74
2022/11/24 10:14:57;;;;;;;0.00;0.00;;;8.00;99.90;;;;;;5068542;28;20056;-73
2022/11/24 10:17:53;;;;;;;0.10;0.10;;;8.20;99.90;;;;;;5067973;28;20427;-73
2022/11/24 10:20:37;;;;;;;6.93;1.08;;;8.20;99.90;;;;;;5067447;28;20051;-72
2022/11/24 10:23:14;;;;;;;0.00;0.00;;;8.30;99.90;;;;;;5072150;28;20935;-73
2022/11/24 10:25:48;;;;;;;2.47;0.68;;;8.40;99.90;;;;;;5071180;28;20423;-73
2022/11/24 10:28:15;;;;;;;0.08;0.08;;;8.40;57.30;;;;;;5072153;28;20060;-72
2022/11/24 10:30:41;;;;;;;0.08;0.08;;;8.50;85.10;;;;;;5053908;28;20048;-73
2022/11/24 10:33:20;;;;;;;1.08;0.60;;;8.50;47.20;;;;;;5071168;28;20486;-74
2022/11/24 10:35:56;;;;;;;0.00;0.00;;;8.60;87.80;;;;;;5053981;28;20102;-73
2022/11/24 10:38:37;;;;;;;0.30;0.30;;;8.60;41.20;;;;;;5072704;28;20041;-74
2022/11/24 10:41:13;;;;;;;0.00;0.00;;;8.70;1.00;;;;;;5072456;28;20101;-71
2022/11/24 10:43:41;;;;;;;0.00;0.00;;;8.80;99.90;;;;;;5072820;28;20059;-74
2022/11/24 10:46:14;;;;;;;1.13;0.98;;;8.90;99.90;;;;;;5072058;28;20044;-74
2022/11/24 10:48:46;;;;;;;0.10;0.10;;;8.80;99.90;;;;;;5070698;28;20048;-73
2022/11/24 10:51:40;;;;;;;0.00;0.00;;;8.80;99.90;;;;;;5072492;28;20078;-73
2022/11/24 10:54:14;;;;;;;0.10;0.10;;;8.70;99.90;;;;;;5065614;28;20052;-73
2022/11/24 10:56:41;;;;;;;0.08;0.08;;;8.60;99.90;;;;;;5070446;28;20068;-73
2022/11/24 10:59:22;;;;;;;0.00;0.00;;;8.60;99.90;;;;;;5071187;28;20044;-73
2022/11/24 11:01:48;;;;;;;0.00;0.00;;;8.60;99.90;;;;;;5070979;28;20041;-73
2022/11/24 11:04:29;;;;;;;0.40;0.25;;;8.60;99.90;;;;;;5070770;28;20075;-74
2022/11/24 11:07:19;;;;;;;0.52;0.52;;;8.70;99.90;;;;;;5071085;28;20044;-74
2022/11/24 11:09:46;;;;;;;0.98;0.70;;;8.80;99.90;;;;;;5071051;28;20079;-74
2022/11/24 11:12:36;;;;;;;0.20;0.20;;;8.80;99.90;;;;;;5071503;28;20048;-74
2022/11/24 11:15:20;;;;;;;0.55;0.47;;;8.70;99.90;;;;;;5070537;28;20056;-73
2022/11/24 11:17:49;;;;;;;0.17;0.17;;;8.60;99.90;;;;;;5069142;28;20422;-73
2022/11/24 11:20:23;;;;;;;0.20;0.17;;;8.70;99.90;;;;;;5071050;28;20041;-73
2022/11/24 11:22:49;;;;;;;0.45;0.20;;;8.70;99.90;;;;;;5070575;28;20043;-73
2022/11/24 11:25:27;;;;;;;0.15;0.10;;;8.80;1.00;;;;;;5070509;28;20119;-73
2022/11/24 11:28:16;;;;;;;0.52;0.22;;;8.90;1.00;;;;;;5070985;28;20044;-73
2022/11/24 11:30:58;;;;;;;0.20;0.17;;;8.90;1.00;;;;;;5071836;28;20052;-73
2022/11/24 11:33:29;;;;;;;1.98;0.57;;;9.10;1.00;;;;;;5073857;28;20048;-74
2022/11/24 11:35:56;;;;;;;0.25;0.25;;;9.10;1.00;;;;;;5073633;28;20055;-73
2022/11/24 11:38:25;;;;;;;0.17;0.17;;;9.20;1.00;;;;;;5073437;28;20275;-72
2022/11/24 11:40:51;;;;;;;0.00;0.00;;;9.30;1.00;;;;;;5073405;28;20059;-74
2022/11/24 11:43:25;;;;;;;22.23;1.30;;;9.30;99.90;;;;;;5073636;28;20063;-72
2022/11/24 11:46:07;;;;;;;0.60;0.47;;;9.40;99.90;;;;;;5072885;28;20096;-73
2022/11/24 11:48:35;;;;;;;0.57;0.22;;;9.50;99.90;;;;;;5073257;28;20040;-73
2022/11/24 11:51:09;;;;;;;1.30;0.50;;;9.50;99.90;;;;;;5074499;28;20048;-75
2022/11/24 11:53:54;;;;;;;0.20;0.20;;;9.60;1.00;;;;;;5056175;28;20064;-74
2022/11/24 11:56:43;;;;;;;0.70;0.43;;;9.70;75.80;;;;;;5073912;28;20056;-72
2022/11/24 11:59:30;;;;;;;0.38;0.35;;;9.90;1.00;;;;;;5073116;28;20127;-73
2022/11/24 12:02:22;;;;;;;4.72;1.67;;;10.10;99.90;;;;;;5054292;28;20056;-73
2022/11/24 12:05:00;;;;;;;0.55;0.55;;;10.80;96.20;;;;;;5054924;28;20070;-75
2022/11/24 12:07:56;;;;;;;0.25;0.17;;;10.60;39.20;;;;;;5073041;28;20052;-72
2022/11/24 12:10:40;;;;;;;0.93;0.32;;;10.80;66.10;;;;;;5071949;28;20101;-72
2022/11/24 12:13:32;;;;;;;1.40;0.75;;;10.90;99.90;;;;;;5074535;28;20048;-72
2022/11/24 12:16:19;;;;;;;0.05;0.05;;;11.00;99.90;;;;;;5073508;28;20056;-75
2022/11/24 12:19:24;;;;;;;0.10;0.10;;;11.00;99.90;;;;;;5074605;28;20048;-74
2022/11/24 12:22:12;;;;;;;0.77;0.65;;;11.20;99.90;;;;;;5072718;28;20060;-73
2022/11/24 12:25:21;;;;;;;0.45;0.35;;;11.20;1.00;;;;;;5072927;28;20049;-73
2022/11/24 12:27:49;;;;;;;0.65;0.20;;;11.30;99.90;;;;;;5010909;28;20064;-72
2022/11/24 12:30:16;;;;;;;4.75;0.85;;;11.40;32.50;;;;;;5064037;28;21075;-74
2022/11/24 12:32:51;;;;;;;0.40;0.38;;;11.50;1.00;;;;;;5072428;28;20053;-73
2022/11/24 12:35:29;;;;;;;0.00;0.00;;;11.50;99.90;;;;;;5072488;28;20741;-74
2022/11/24 12:38:31;;;;;;;3.63;0.57;;;11.50;1.00;;;;;;5055625;28;20059;-74
2022/11/24 12:41:07;;;;;;;0.25;0.20;;;11.60;99.90;;;;;;5069232;28;20510;-75
2022/11/24 12:43:35;;;;;;;0.08;0.08;;;11.50;99.90;;;;;;5073988;28;20048;-75
2022/11/24 12:46:18;;;;;;;0.38;0.28;;;11.60;99.90;;;;;;5072478;28;20048;-72
2022/11/24 12:48:56;;;;;;;0.60;0.32;;;11.60;99.90;;;;;;5073722;28;20048;-72
2022/11/24 12:51:36;;;;;;;0.82;0.80;;;11.60;99.90;;;;;;5073463;28;20078;-73
2022/11/24 12:54:05;;;;;;;0.03;0.00;;;11.80;99.90;;;;;;5072254;28;20056;-75
2022/11/24 12:56:42;;;;;;;0.10;0.00;;;11.80;99.90;;;;;;5071539;28;20048;-74
2022/11/24 12:59:30;;;;;;;0.10;0.10;;;11.60;99.90;;;;;;5071962;28;20052;-74
2022/11/24 13:02:09;;;;;;;4.18;0.70;;;11.60;1.00;;;;;;5072572;28;20044;-75
2022/11/24 13:04:54;;;;;;;0.80;0.65;;;11.70;1.00;;;;;;5072666;28;20812;-74
2022/11/24 13:07:34;;;;;;;1.05;0.70;;;11.80;99.90;;;;;;5071750;28;20055;-72
2022/11/24 13:10:24;;;;;;;2.10;1.08;;;11.70;99.90;;;;;;5073393;28;20139;-73